createdAt,value
2023-05-13T00:00:28.228Z,1020.41
2023-05-13T00:01:32.496Z,1020.41
2023-05-13T00:02:36.807Z,1020.41
2023-05-13T00:03:41.106Z,1020.43
2023-05-13T00:04:45.285Z,1020.40
2023-05-13T00:05:49.605Z,1020.40
2023-05-13T00:06:53.855Z,1020.41
2023-05-13T00:07:58.215Z,1020.39
2023-05-13T00:09:02.438Z,1020.41
2023-05-13T00:10:06.726Z,1020.39
2023-05-13T00:11:11.079Z,1020.38
2023-05-13T00:12:15.353Z,1020.38
2023-05-13T00:13:19.648Z,1020.35
2023-05-13T00:14:23.861Z,1020.39
2023-05-13T00:15:28.138Z,1020.37
2023-05-13T00:16:32.402Z,1020.37
2023-05-13T00:17:36.603Z,1020.39
2023-05-13T00:18:40.882Z,1020.38
2023-05-13T00:19:45.104Z,1020.39
2023-05-13T00:20:49.445Z,1020.41
2023-05-13T00:21:53.681Z,1020.39
2023-05-13T00:22:57.975Z,1020.39
2023-05-13T00:24:02.336Z,1020.39
2023-05-13T00:25:06.635Z,1020.39
2023-05-13T00:26:10.924Z,1020.40
2023-05-13T00:27:15.176Z,1020.41
2023-05-13T00:28:19.398Z,1020.45
2023-05-13T00:29:23.704Z,1020.43
2023-05-13T00:30:28.055Z,1020.41
2023-05-13T00:31:32.415Z,1020.43
2023-05-13T00:32:36.559Z,1020.45
2023-05-13T00:33:40.831Z,1020.44
2023-05-13T00:34:45.066Z,1020.44
2023-05-13T00:35:49.351Z,1020.44
2023-05-13T00:37:07.659Z,1020.44
2023-05-13T00:38:10.915Z,1020.43
2023-05-13T00:39:15.061Z,1020.42
2023-05-13T00:40:19.648Z,1020.42
2023-05-13T00:41:23.514Z,1020.44
2023-05-13T00:42:27.910Z,1020.45
2023-05-13T00:43:32.196Z,1020.43
2023-05-13T00:44:36.408Z,1020.44
2023-05-13T00:45:40.710Z,1020.43
2023-05-13T00:46:44.955Z,1020.40
2023-05-13T00:47:49.287Z,1020.43
2023-05-13T00:48:53.518Z,1020.43
2023-05-13T00:49:57.885Z,1020.43
2023-05-13T00:51:05.111Z,1020.43
2023-05-13T00:52:08.529Z,1020.43
2023-05-13T00:53:12.709Z,1020.42
2023-05-13T00:54:16.964Z,1020.44
2023-05-13T00:55:21.288Z,1020.42
2023-05-13T00:56:25.517Z,1020.45
2023-05-13T00:57:29.960Z,1020.45
2023-05-13T00:58:34.078Z,1020.46
2023-05-13T00:59:38.352Z,1020.46
2023-05-13T01:00:42.608Z,1020.44
2023-05-13T01:01:46.961Z,1020.44
2023-05-13T01:02:51.350Z,1020.45
2023-05-13T01:03:55.526Z,1020.44
2023-05-13T01:04:59.845Z,1020.41
2023-05-13T01:06:04.138Z,1020.41
2023-05-13T01:07:08.359Z,1020.43
2023-05-13T01:08:26.643Z,1020.43
2023-05-13T01:09:29.869Z,1020.41
2023-05-13T01:10:34.116Z,1020.44
2023-05-13T01:11:38.355Z,1020.42
2023-05-13T01:12:42.629Z,1020.44
2023-05-13T01:13:46.862Z,1020.44
2023-05-13T01:14:51.187Z,1020.43
2023-05-13T01:15:55.405Z,1020.44
2023-05-13T01:16:59.861Z,1020.44
2023-05-13T01:18:04.010Z,1020.45
2023-05-13T01:19:08.296Z,1020.43
2023-05-13T01:20:12.381Z,1020.47
2023-05-13T01:21:16.791Z,1020.46
2023-05-13T01:22:21.130Z,1020.47
2023-05-13T01:23:25.438Z,1020.49
2023-05-13T01:24:29.674Z,1020.49
2023-05-13T01:25:33.911Z,1020.48
2023-05-13T01:26:38.284Z,1020.50
2023-05-13T01:27:42.472Z,1020.50
2023-05-13T01:28:46.888Z,1020.52
2023-05-13T01:29:51.114Z,1020.54
2023-05-13T01:30:55.448Z,1020.53
2023-05-13T01:31:59.629Z,1020.56
2023-05-13T01:33:04.062Z,1020.55
2023-05-13T01:34:08.272Z,1020.56
2023-05-13T01:35:12.609Z,1020.59
2023-05-13T01:36:16.816Z,1020.59
2023-05-13T01:37:21.087Z,1020.60
2023-05-13T01:38:25.451Z,1020.58
2023-05-13T01:39:29.747Z,1020.60
2023-05-13T01:40:34.069Z,1020.61
2023-05-13T01:41:38.253Z,1020.62
2023-05-13T01:42:42.472Z,1020.63
2023-05-13T01:43:46.712Z,1020.64
2023-05-13T01:44:51.004Z,1020.61
2023-05-13T01:45:55.299Z,1020.64
2023-05-13T01:46:59.554Z,1020.63
2023-05-13T01:48:03.910Z,1020.62
2023-05-13T01:49:08.097Z,1020.61
2023-05-13T01:50:12.358Z,1020.63
2023-05-13T01:51:16.676Z,1020.61
2023-05-13T01:52:20.995Z,1020.62
2023-05-13T01:53:25.192Z,1020.61
2023-05-13T01:54:29.451Z,1020.60
2023-05-13T01:55:33.707Z,1020.60
2023-05-13T01:56:41.047Z,1020.61
2023-05-13T01:57:44.392Z,1020.62
2023-05-13T01:58:48.728Z,1020.59
2023-05-13T01:59:52.956Z,1020.60
2023-05-13T02:00:57.298Z,1020.59
2023-05-13T02:02:01.646Z,1020.60
2023-05-13T02:03:05.891Z,1020.60
2023-05-13T02:04:10.052Z,1020.60
2023-05-13T02:05:14.320Z,1020.60
2023-05-13T02:06:18.507Z,1020.61
2023-05-13T02:07:22.837Z,1020.59
2023-05-13T02:08:27.040Z,1020.61
2023-05-13T02:09:31.299Z,1020.61
2023-05-13T02:10:35.467Z,1020.62
2023-05-13T02:11:39.756Z,1020.61
2023-05-13T02:12:43.918Z,1020.64
2023-05-13T02:13:48.326Z,1020.64
2023-05-13T02:14:52.609Z,1020.64
2023-05-13T02:15:56.896Z,1020.64
2023-05-13T02:17:01.070Z,1020.64
2023-05-13T02:18:05.407Z,1020.65
2023-05-13T02:19:09.735Z,1020.63
2023-05-13T02:20:13.998Z,1020.63
2023-05-13T02:21:18.136Z,1020.65
2023-05-13T02:22:22.512Z,1020.64
2023-05-13T02:23:26.788Z,1020.63
2023-05-13T02:24:31.066Z,1020.64
2023-05-13T02:25:35.286Z,1020.64
2023-05-13T02:26:39.510Z,1020.63
2023-05-13T02:27:43.774Z,1020.63
2023-05-13T02:28:48.180Z,1020.63
2023-05-13T02:29:52.340Z,1020.65
2023-05-13T02:30:56.651Z,1020.63
2023-05-13T02:32:01.047Z,1020.64
2023-05-13T02:33:05.396Z,1020.64
2023-05-13T02:34:09.534Z,1020.66
2023-05-13T02:35:13.915Z,1020.65
2023-05-13T02:36:18.337Z,1020.64
2023-05-13T02:37:22.534Z,1020.67
2023-05-13T02:38:26.673Z,1020.66
2023-05-13T02:39:31.060Z,1020.65
2023-05-13T02:40:35.398Z,1020.64
2023-05-13T02:41:39.703Z,1020.64
2023-05-13T02:42:43.922Z,1020.63
2023-05-13T02:43:48.171Z,1020.63
2023-05-13T02:44:52.558Z,1020.64
2023-05-13T02:45:56.775Z,1020.64
2023-05-13T02:47:01.082Z,1020.64
2023-05-13T02:48:05.376Z,1020.63
2023-05-13T02:49:09.646Z,1020.64
2023-05-13T02:50:13.889Z,1020.63
2023-05-13T02:51:18.129Z,1020.63
2023-05-13T02:52:22.351Z,1020.63
2023-05-13T02:53:26.700Z,1020.61
2023-05-13T02:54:30.921Z,1020.61
2023-05-13T02:55:35.216Z,1020.61
2023-05-13T02:56:42.363Z,1020.63
2023-05-13T02:57:45.732Z,1020.63
2023-05-13T02:58:50.002Z,1020.63
2023-05-13T02:59:54.177Z,1020.63
2023-05-13T03:00:58.533Z,1020.64
2023-05-13T03:02:05.736Z,1020.65
2023-05-13T03:03:09.222Z,1020.63
2023-05-13T03:04:13.408Z,1020.65
2023-05-13T03:05:17.740Z,1020.65
2023-05-13T03:06:21.976Z,1020.66
2023-05-13T03:07:26.322Z,1020.64
2023-05-13T03:08:30.534Z,1020.66
2023-05-13T03:09:34.883Z,1020.67
2023-05-13T03:10:39.204Z,1020.66
2023-05-13T03:11:43.508Z,1020.68
2023-05-13T03:12:47.741Z,1020.68
2023-05-13T03:13:51.869Z,1020.70
2023-05-13T03:14:56.274Z,1020.70
2023-05-13T03:16:00.502Z,1020.72
2023-05-13T03:17:04.739Z,1020.71
2023-05-13T03:18:09.139Z,1020.72
2023-05-13T03:19:13.431Z,1020.74
2023-05-13T03:20:17.662Z,1020.72
2023-05-13T03:21:21.846Z,1020.72
2023-05-13T03:22:26.308Z,1020.74
2023-05-13T03:23:30.462Z,1020.71
2023-05-13T03:24:34.683Z,1020.71
2023-05-13T03:25:38.945Z,1020.74
2023-05-13T03:26:43.194Z,1020.76
2023-05-13T03:27:47.504Z,1020.76
2023-05-13T03:28:51.677Z,1020.78
2023-05-13T03:29:55.999Z,1020.78
2023-05-13T03:31:00.228Z,1020.78
2023-05-13T03:32:04.441Z,1020.76
2023-05-13T03:33:08.773Z,1020.77
2023-05-13T03:34:19.134Z,1020.77
2023-05-13T03:35:21.992Z,1020.78
2023-05-13T03:36:26.185Z,1020.79
2023-05-13T03:37:30.406Z,1020.80
2023-05-13T03:38:34.655Z,1020.80
2023-05-13T03:39:38.917Z,1020.80
2023-05-13T03:40:43.204Z,1020.82
2023-05-13T03:41:47.397Z,1020.84
2023-05-13T03:42:51.682Z,1020.82
2023-05-13T03:43:56.040Z,1020.81
2023-05-13T03:45:00.333Z,1020.81
2023-05-13T03:46:04.532Z,1020.81
2023-05-13T03:47:08.969Z,1020.80
2023-05-13T03:48:13.155Z,1020.81
2023-05-13T03:49:17.356Z,1020.82
2023-05-13T03:50:21.793Z,1020.81
2023-05-13T03:51:25.908Z,1020.82
2023-05-13T03:52:30.136Z,1020.84
2023-05-13T03:53:34.452Z,1020.83
2023-05-13T03:54:38.685Z,1020.87
2023-05-13T03:55:42.985Z,1020.85
2023-05-13T03:56:47.436Z,1020.86
2023-05-13T03:57:51.654Z,1020.85
2023-05-13T03:58:55.955Z,1020.86
2023-05-13T04:00:00.383Z,1020.86
2023-05-13T04:01:04.605Z,1020.87
2023-05-13T04:02:08.848Z,1020.87
2023-05-13T04:03:13.263Z,1020.85
2023-05-13T04:04:17.462Z,1020.86
2023-05-13T04:05:21.804Z,1020.87
2023-05-13T04:06:25.840Z,1020.87
2023-05-13T04:07:30.257Z,1020.89
2023-05-13T04:08:34.549Z,1020.91
2023-05-13T04:09:38.857Z,1020.91
2023-05-13T04:10:43.179Z,1020.90
2023-05-13T04:11:47.411Z,1020.92
2023-05-13T04:12:51.646Z,1020.91
2023-05-13T04:13:56.041Z,1020.94
2023-05-13T04:15:00.171Z,1020.95
2023-05-13T04:16:04.467Z,1020.96
2023-05-13T04:17:08.778Z,1020.94
2023-05-13T04:18:12.970Z,1020.93
2023-05-13T04:19:18.211Z,1020.96
2023-05-13T04:20:22.397Z,1020.97
2023-05-13T04:21:26.383Z,1020.98
2023-05-13T04:22:30.711Z,1020.98
2023-05-13T04:23:34.946Z,1020.97
2023-05-13T04:24:39.126Z,1020.99
2023-05-13T04:25:43.453Z,1021.00
2023-05-13T04:26:47.717Z,1020.99
2023-05-13T04:27:51.970Z,1021.02
2023-05-13T04:28:56.220Z,1021.04
2023-05-13T04:30:00.496Z,1021.04
2023-05-13T04:31:04.669Z,1021.05
2023-05-13T04:32:08.951Z,1021.06
2023-05-13T04:33:13.315Z,1021.07
2023-05-13T04:34:17.489Z,1021.06
2023-05-13T04:35:21.833Z,1021.06
2023-05-13T04:36:26.111Z,1021.05
2023-05-13T04:37:30.305Z,1021.05
2023-05-13T04:38:34.638Z,1021.02
2023-05-13T04:39:39.054Z,1021.01
2023-05-13T04:40:43.294Z,1021.02
2023-05-13T04:41:47.543Z,1021.04
2023-05-13T04:42:51.799Z,1021.05
2023-05-13T04:43:56.069Z,1021.03
2023-05-13T04:45:00.349Z,1021.03
2023-05-13T04:46:04.489Z,1021.05
2023-05-13T04:47:09.044Z,1021.04
2023-05-13T04:48:13.327Z,1021.03
2023-05-13T04:49:17.499Z,1021.04
2023-05-13T04:50:22.069Z,1021.04
2023-05-13T04:51:26.102Z,1021.03
2023-05-13T04:52:30.332Z,1021.05
2023-05-13T04:53:34.604Z,1021.05
2023-05-13T04:54:38.884Z,1021.02
2023-05-13T04:55:43.232Z,1021.03
2023-05-13T04:56:47.426Z,1021.03
2023-05-13T04:57:51.788Z,1021.03
2023-05-13T04:58:56.028Z,1021.01
2023-05-13T05:00:00.288Z,1021.02
2023-05-13T05:01:04.658Z,1021.03
2023-05-13T05:02:08.917Z,1021.05
2023-05-13T05:03:13.157Z,1021.07
2023-05-13T05:04:17.489Z,1021.06
2023-05-13T05:05:35.819Z,1021.07
2023-05-13T05:06:39.054Z,1021.06
2023-05-13T05:07:43.267Z,1021.06
2023-05-13T05:08:47.555Z,1021.07
2023-05-13T05:09:51.878Z,1021.08
2023-05-13T05:10:56.225Z,1021.07
2023-05-13T05:12:00.509Z,1021.06
2023-05-13T05:13:04.845Z,1021.07
2023-05-13T05:14:09.169Z,1021.07
2023-05-13T05:15:13.455Z,1021.06
2023-05-13T05:16:17.785Z,1021.09
2023-05-13T05:17:22.118Z,1021.09
2023-05-13T05:18:26.532Z,1021.09
2023-05-13T05:19:30.731Z,1021.10
2023-05-13T05:20:34.919Z,1021.10
2023-05-13T05:21:39.218Z,1021.10
2023-05-13T05:22:43.509Z,1021.11
2023-05-13T05:23:47.864Z,1021.12
2023-05-13T05:24:52.112Z,1021.13
2023-05-13T05:26:07.849Z,1021.13
2023-05-13T05:27:00.846Z,1021.14
2023-05-13T05:28:05.037Z,1021.13
2023-05-13T05:29:09.406Z,1021.14
2023-05-13T05:30:13.701Z,1021.16
2023-05-13T05:31:18.076Z,1021.16
2023-05-13T05:32:22.328Z,1021.20
2023-05-13T05:33:26.672Z,1021.20
2023-05-13T05:34:30.939Z,1021.22
2023-05-13T05:35:35.213Z,1021.23
2023-05-13T05:36:39.586Z,1021.22
2023-05-13T05:37:43.850Z,1021.24
2023-05-13T05:38:54.234Z,1021.24
2023-05-13T05:39:57.189Z,1021.21
2023-05-13T05:41:01.467Z,1021.22
2023-05-13T05:42:05.904Z,1021.23
2023-05-13T05:43:10.060Z,1021.22
2023-05-13T05:44:14.454Z,1021.22
2023-05-13T05:45:18.712Z,1021.22
2023-05-13T05:46:23.088Z,1021.21
2023-05-13T05:47:27.594Z,1021.22
2023-05-13T05:48:34.373Z,1021.23
2023-05-13T05:49:39.191Z,1021.23
2023-05-13T05:50:42.596Z,1021.22
2023-05-13T05:51:46.865Z,1021.20
2023-05-13T05:52:51.199Z,1021.21
2023-05-13T05:53:55.361Z,1021.22
2023-05-13T05:54:59.817Z,1021.22
2023-05-13T05:56:04.209Z,1021.21
2023-05-13T05:57:08.588Z,1021.17
2023-05-13T05:58:12.911Z,1021.19
2023-05-13T05:59:17.185Z,1021.20
2023-05-13T06:00:21.611Z,1021.17
2023-05-13T06:01:25.906Z,1021.16
2023-05-13T06:02:30.313Z,1021.14
2023-05-13T06:03:34.677Z,1021.13
2023-05-13T06:04:39.037Z,1021.10
2023-05-13T06:05:43.423Z,1021.14
2023-05-13T06:06:47.811Z,1021.11
2023-05-13T06:07:52.113Z,1021.10
2023-05-13T06:08:56.488Z,1021.10
2023-05-13T06:10:00.873Z,1021.10
2023-05-13T06:11:05.249Z,1021.08
2023-05-13T06:12:09.608Z,1021.09
2023-05-13T06:13:13.993Z,1021.06
2023-05-13T06:14:18.302Z,1021.03
2023-05-13T06:15:22.680Z,1021.05
2023-05-13T06:16:27.108Z,1021.05
2023-05-13T06:17:34.337Z,1021.06
2023-05-13T06:18:37.860Z,1021.05
2023-05-13T06:19:42.152Z,1021.05
2023-05-13T06:20:46.553Z,1021.04
2023-05-13T06:21:50.881Z,1021.03
2023-05-13T06:22:55.376Z,1021.04
2023-05-13T06:23:59.646Z,1021.01
2023-05-13T06:25:04.009Z,1021.02
2023-05-13T06:26:08.392Z,1021.04
2023-05-13T06:27:12.721Z,1021.04
2023-05-13T06:28:17.139Z,1021.04
2023-05-13T06:29:21.513Z,1021.05
2023-05-13T06:30:25.894Z,1021.03
2023-05-13T06:31:30.205Z,1020.99
2023-05-13T06:32:34.714Z,1021.00
2023-05-13T06:33:38.982Z,1020.96
2023-05-13T06:34:46.469Z,1020.97
2023-05-13T06:35:52.971Z,1020.97
2023-05-13T06:36:56.426Z,1020.97
2023-05-13T06:38:00.827Z,1020.95
2023-05-13T06:39:05.207Z,1020.96
2023-05-13T06:40:09.584Z,1020.97
2023-05-13T06:41:14.003Z,1021.01
2023-05-13T06:42:18.326Z,1021.04
2023-05-13T06:43:22.759Z,1020.98
2023-05-13T06:44:27.227Z,1020.98
2023-05-13T06:45:31.486Z,1021.01
2023-05-13T06:46:35.967Z,1021.03
2023-05-13T06:47:40.243Z,1021.08
2023-05-13T06:48:44.601Z,1021.03
2023-05-13T06:50:03.029Z,1021.05
2023-05-13T06:51:06.324Z,1021.04
2023-05-13T06:52:10.663Z,1021.05
2023-05-13T06:53:14.963Z,1021.05
2023-05-13T06:54:19.401Z,1021.06
2023-05-13T06:55:23.733Z,1021.09
2023-05-13T06:56:28.100Z,1021.07
2023-05-13T06:57:41.810Z,1021.11
2023-05-13T06:58:36.783Z,1021.10
2023-05-13T06:59:41.088Z,1021.12
2023-05-13T07:00:45.454Z,1021.13
2023-05-13T07:01:49.844Z,1021.09
2023-05-13T07:02:54.241Z,1021.12
2023-05-13T07:03:58.671Z,1021.14
2023-05-13T07:05:03.173Z,1021.16
2023-05-13T07:06:07.598Z,1021.15
2023-05-13T07:07:11.913Z,1021.18
2023-05-13T07:08:16.246Z,1021.12
2023-05-13T07:10:48.077Z,1021.13
2023-05-13T07:11:52.389Z,1021.11
2023-05-13T07:12:56.774Z,1021.10
2023-05-13T07:14:01.317Z,1021.10
2023-05-13T07:15:05.641Z,1021.11
2023-05-13T07:16:09.952Z,1021.13
2023-05-13T07:17:28.655Z,1021.03
2023-05-13T07:18:31.888Z,1021.00
2023-05-13T07:19:36.139Z,1021.00
2023-05-13T07:20:40.458Z,1021.05
2023-05-13T07:21:44.787Z,1021.02
2023-05-13T07:22:49.123Z,1021.04
2023-05-13T07:23:53.417Z,1021.08
2023-05-13T07:24:57.858Z,1021.08
2023-05-13T07:26:02.273Z,1021.08
2023-05-13T07:27:06.636Z,1021.09
2023-05-13T07:28:11.083Z,1021.08
2023-05-13T07:29:15.609Z,1021.04
2023-05-13T07:30:20.198Z,1021.04
2023-05-13T07:31:24.440Z,1021.04
2023-05-13T07:32:28.793Z,1021.02
2023-05-13T07:33:33.161Z,1021.02
2023-05-13T07:34:37.546Z,1021.01
2023-05-13T07:35:41.913Z,1021.00
2023-05-13T07:36:46.258Z,1021.05
2023-05-13T07:37:50.774Z,1021.03
2023-05-13T07:38:54.965Z,1021.04
2023-05-13T07:39:59.480Z,1021.04
2023-05-13T07:41:03.865Z,1021.04
2023-05-13T07:42:08.166Z,1021.07
2023-05-13T07:43:12.499Z,1021.02
2023-05-13T07:44:16.865Z,1021.04
2023-05-13T07:45:21.720Z,1021.04
2023-05-13T07:46:25.751Z,1021.05
2023-05-13T07:47:33.233Z,1021.07
2023-05-13T07:48:36.717Z,1021.06
2023-05-13T07:49:41.111Z,1021.04
2023-05-13T07:50:45.501Z,1021.04
2023-05-13T07:51:49.859Z,1021.03
2023-05-13T07:52:54.214Z,1021.06
2023-05-13T07:53:58.696Z,1021.07
2023-05-13T07:55:02.995Z,1021.03
2023-05-13T07:56:07.441Z,1021.01
2023-05-13T07:57:11.911Z,1021.02
2023-05-13T07:58:16.245Z,1021.02
2023-05-13T07:59:20.584Z,1020.96
2023-05-13T08:00:25.062Z,1020.98
2023-05-13T08:01:29.424Z,1020.98
2023-05-13T08:02:33.786Z,1021.02
2023-05-13T08:03:38.223Z,1020.99
2023-05-13T08:04:42.616Z,1020.91
2023-05-13T08:05:46.856Z,1020.88
2023-05-13T08:06:51.371Z,1020.88
2023-05-13T08:07:55.764Z,1020.89
2023-05-13T08:09:00.164Z,1020.87
2023-05-13T08:10:04.470Z,1020.82
2023-05-13T08:11:08.913Z,1020.84
2023-05-13T08:12:13.338Z,1020.88
2023-05-13T08:13:17.776Z,1020.91
2023-05-13T08:14:22.066Z,1020.88
2023-05-13T08:15:26.470Z,1020.89
2023-05-13T08:16:31.009Z,1020.90
2023-05-13T08:17:35.509Z,1020.88
2023-05-13T08:18:39.849Z,1020.87
2023-05-13T08:19:44.329Z,1020.83
2023-05-13T08:20:48.615Z,1020.83
2023-05-13T08:21:52.980Z,1020.85
2023-05-13T08:22:57.468Z,1020.84
2023-05-13T08:24:01.932Z,1020.82
2023-05-13T08:25:09.348Z,1020.79
2023-05-13T08:26:12.793Z,1020.74
2023-05-13T08:27:17.233Z,1020.76
2023-05-13T08:28:21.630Z,1020.77
2023-05-13T08:29:25.916Z,1020.77
2023-05-13T08:30:30.433Z,1020.78
2023-05-13T08:31:34.868Z,1020.81
2023-05-13T08:32:39.171Z,1020.83
2023-05-13T08:33:43.588Z,1020.83
2023-05-13T08:34:48.054Z,1020.82
2023-05-13T08:35:52.483Z,1020.81
2023-05-13T08:36:56.840Z,1020.85
2023-05-13T08:38:01.532Z,1020.77
2023-05-13T08:39:05.784Z,1020.77
2023-05-13T08:40:10.196Z,1020.80
2023-05-13T08:41:14.622Z,1020.80
2023-05-13T08:42:19.055Z,1020.77
2023-05-13T08:43:23.505Z,1020.74
2023-05-13T08:44:27.957Z,1020.71
2023-05-13T08:45:32.257Z,1020.74
2023-05-13T08:46:36.753Z,1020.73
2023-05-13T08:47:41.070Z,1020.70
2023-05-13T08:48:45.548Z,1020.72
2023-05-13T08:49:49.862Z,1020.70
2023-05-13T08:50:54.436Z,1020.65
2023-05-13T08:51:58.848Z,1020.66
2023-05-13T08:53:03.159Z,1020.69
2023-05-13T08:54:07.617Z,1020.67
2023-05-13T08:55:11.933Z,1020.67
2023-05-13T08:56:16.481Z,1020.67
2023-05-13T08:57:20.843Z,1020.65
2023-05-13T08:58:25.212Z,1020.69
2023-05-13T08:59:29.603Z,1020.69
2023-05-13T09:00:34.047Z,1020.74
2023-05-13T09:03:05.738Z,1020.72
2023-05-13T09:04:09.953Z,1020.70
2023-05-13T09:05:14.341Z,1020.75
2023-05-13T09:06:18.653Z,1020.66
2023-05-13T09:07:23.038Z,1020.73
2023-05-13T09:08:27.429Z,1020.72
2023-05-13T09:09:31.792Z,1020.67
2023-05-13T09:10:36.248Z,1020.63
2023-05-13T09:11:43.967Z,1020.58
2023-05-13T09:12:45.069Z,1020.60
2023-05-13T09:13:55.564Z,1020.61
2023-05-13T09:14:58.683Z,1020.59
2023-05-13T09:16:03.221Z,1020.60
2023-05-13T09:17:07.530Z,1020.59
2023-05-13T09:18:12.105Z,1020.56
2023-05-13T09:19:16.662Z,1020.58
2023-05-13T09:20:20.855Z,1020.58
2023-05-13T09:21:28.236Z,1020.57
2023-05-13T09:22:31.691Z,1020.57
2023-05-13T09:23:36.159Z,1020.51
2023-05-13T09:24:40.512Z,1020.54
2023-05-13T09:25:44.961Z,1020.52
2023-05-13T09:26:49.503Z,1020.53
2023-05-13T09:27:53.954Z,1020.62
2023-05-13T09:28:58.329Z,1020.54
2023-05-13T09:30:02.751Z,1020.54
2023-05-13T09:31:10.225Z,1020.53
2023-05-13T09:32:13.676Z,1020.54
2023-05-13T09:33:18.224Z,1020.55
2023-05-13T09:34:22.602Z,1020.58
2023-05-13T09:35:26.989Z,1020.57
2023-05-13T09:36:31.396Z,1020.58
2023-05-13T09:37:36.018Z,1020.58
2023-05-13T09:38:40.394Z,1020.57
2023-05-13T09:39:44.898Z,1020.52
2023-05-13T09:40:49.248Z,1020.51
2023-05-13T09:41:53.565Z,1020.45
2023-05-13T09:43:01.140Z,1020.43
2023-05-13T09:44:04.652Z,1020.41
2023-05-13T09:45:09.134Z,1020.40
2023-05-13T09:46:13.508Z,1020.38
2023-05-13T09:47:20.825Z,1020.34
2023-05-13T09:48:24.434Z,1020.41
2023-05-13T09:49:28.726Z,1020.37
2023-05-13T09:50:33.196Z,1020.36
2023-05-13T09:51:37.647Z,1020.32
2023-05-13T09:52:42.100Z,1020.36
2023-05-13T09:53:46.434Z,1020.38
2023-05-13T09:54:50.888Z,1020.35
2023-05-13T09:55:55.453Z,1020.30
2023-05-13T09:56:59.710Z,1020.30
2023-05-13T09:58:04.189Z,1020.28
2023-05-13T09:59:08.616Z,1020.28
2023-05-13T10:00:32.570Z,1020.23
2023-05-13T10:01:30.496Z,1020.30
2023-05-13T10:02:34.897Z,1020.29
2023-05-13T10:03:39.353Z,1020.28
2023-05-13T10:04:43.695Z,1020.31
2023-05-13T10:05:48.121Z,1020.29
2023-05-13T10:06:52.507Z,1020.27
2023-05-13T10:07:56.958Z,1020.22
2023-05-13T10:09:01.398Z,1020.22
2023-05-13T10:10:05.767Z,1020.16
2023-05-13T10:11:10.222Z,1020.12
2023-05-13T10:12:14.598Z,1020.17
2023-05-13T10:13:18.965Z,1020.11
2023-05-13T10:14:23.463Z,1020.15
2023-05-13T10:15:41.885Z,1020.13
2023-05-13T10:16:45.340Z,1020.16
2023-05-13T10:17:55.568Z,1020.09
2023-05-13T10:18:58.840Z,1020.06
2023-05-13T10:20:02.980Z,1020.07
2023-05-13T10:21:07.339Z,1020.03
2023-05-13T10:22:11.705Z,1019.97
2023-05-13T10:23:16.188Z,1020.08
2023-05-13T10:24:20.544Z,1020.19
2023-05-13T10:25:25.010Z,1020.22
2023-05-13T10:26:29.480Z,1020.28
2023-05-13T10:27:33.971Z,1020.13
2023-05-13T10:28:38.359Z,1020.07
2023-05-13T10:29:56.904Z,1020.04
2023-05-13T10:31:00.448Z,1020.14
2023-05-13T10:32:04.903Z,1020.15
2023-05-13T10:33:09.440Z,1020.10
2023-05-13T10:34:13.793Z,1020.06
2023-05-13T10:35:18.064Z,1020.00
2023-05-13T10:36:25.554Z,1020.06
2023-05-13T10:37:29.029Z,1020.06
2023-05-13T10:38:33.520Z,1019.97
2023-05-13T10:39:37.867Z,1019.98
2023-05-13T10:40:45.270Z,1020.03
2023-05-13T10:42:02.827Z,1020.04
2023-05-13T10:43:06.174Z,1020.01
2023-05-13T10:44:10.581Z,1020.05
2023-05-13T10:45:29.027Z,1020.00
2023-05-13T10:46:32.478Z,1020.04
2023-05-13T10:47:50.969Z,1020.08
2023-05-13T10:48:54.382Z,1020.10
2023-05-13T10:49:58.825Z,1020.07
2023-05-13T10:51:03.214Z,1020.09
2023-05-13T10:52:21.627Z,1020.07
2023-05-13T10:53:25.032Z,1020.06
2023-05-13T10:54:29.432Z,1020.00
2023-05-13T10:55:33.854Z,1019.96
2023-05-13T10:56:38.324Z,1019.98
2023-05-13T10:57:42.771Z,1019.96
2023-05-13T10:58:47.152Z,1019.93
2023-05-13T10:59:51.637Z,1019.90
2023-05-13T11:00:56.111Z,1019.92
2023-05-13T11:02:03.599Z,1019.84
2023-05-13T11:03:07.030Z,1019.80
2023-05-13T11:04:11.564Z,1019.84
2023-05-13T11:05:15.881Z,1019.83
2023-05-13T11:06:34.225Z,1019.86
2023-05-13T11:07:37.632Z,1019.82
2023-05-13T11:08:42.056Z,1019.83
2023-05-13T11:09:46.444Z,1019.85
2023-05-13T11:10:50.984Z,1019.79
2023-05-13T11:11:55.370Z,1019.71
2023-05-13T11:12:59.831Z,1019.77
2023-05-13T11:14:04.209Z,1019.79
2023-05-13T11:15:08.576Z,1019.70
2023-05-13T11:16:13.104Z,1019.75
2023-05-13T11:17:17.631Z,1019.75
2023-05-13T11:18:22.024Z,1019.74
2023-05-13T11:19:26.404Z,1019.69
2023-05-13T11:20:37.360Z,1019.73
2023-05-13T11:23:02.654Z,1019.65
2023-05-13T11:24:21.086Z,1019.68
2023-05-13T11:25:24.267Z,1019.65
2023-05-13T11:26:42.628Z,1019.64
2023-05-13T11:27:46.041Z,1019.67
2023-05-13T11:28:50.349Z,1019.70
2023-05-13T11:30:08.776Z,1019.62
2023-05-13T11:31:11.640Z,1019.54
2023-05-13T11:32:15.977Z,1019.58
2023-05-13T11:33:20.446Z,1019.55
2023-05-13T11:34:24.880Z,1019.38
2023-05-13T11:35:32.315Z,1019.43
2023-05-13T11:36:36.003Z,1019.55
2023-05-13T11:37:40.369Z,1019.52
2023-05-13T11:38:44.777Z,1019.57
2023-05-13T11:39:55.194Z,1019.58
2023-05-13T11:40:58.282Z,1019.60
2023-05-13T11:42:02.662Z,1019.57
2023-05-13T11:43:07.037Z,1019.60
2023-05-13T11:44:11.512Z,1019.65
2023-05-13T11:45:15.907Z,1019.58
2023-05-13T11:46:26.342Z,1019.52
2023-05-13T11:47:29.555Z,1019.54
2023-05-13T11:48:33.792Z,1019.51
2023-05-13T11:49:38.303Z,1019.45
2023-05-13T11:50:42.778Z,1019.44
2023-05-13T11:51:47.261Z,1019.42
2023-05-13T11:52:57.654Z,1019.36
2023-05-13T11:54:00.822Z,1019.47
2023-05-13T11:55:07.054Z,1019.35
2023-05-13T11:56:12.719Z,1019.41
2023-05-13T11:57:16.305Z,1019.37
2023-05-13T11:58:26.682Z,1019.38
2023-05-13T11:59:38.675Z,1019.37
2023-05-13T12:00:34.180Z,1019.47
2023-05-13T12:01:38.683Z,1019.33
2023-05-13T12:02:52.214Z,1019.28
2023-05-13T12:03:55.002Z,1019.29
2023-05-13T12:04:59.506Z,1019.35
2023-05-13T12:06:03.833Z,1019.26
2023-05-13T12:07:08.360Z,1019.21
2023-05-13T12:08:12.789Z,1019.27
2023-05-13T12:09:17.162Z,1019.33
2023-05-13T12:10:21.614Z,1019.26
2023-05-13T12:11:29.066Z,1019.32
2023-05-13T12:12:32.688Z,1019.32
2023-05-13T12:13:37.156Z,1019.23
2023-05-13T12:14:41.559Z,1019.29
2023-05-13T12:15:46.065Z,1019.36
2023-05-13T12:16:50.512Z,1019.30
2023-05-13T12:18:00.987Z,1019.31
2023-05-13T12:19:18.174Z,1019.39
2023-05-13T12:20:21.535Z,1019.32
2023-05-13T12:21:25.935Z,1019.31
2023-05-13T12:22:31.426Z,1019.30
2023-05-13T12:23:35.380Z,1019.24
2023-05-13T12:24:39.809Z,1019.24
2023-05-13T12:25:47.289Z,1019.27
2023-05-13T12:26:50.811Z,1019.35
2023-05-13T12:28:01.290Z,1019.27
2023-05-13T12:29:18.357Z,1019.22
2023-05-13T12:30:21.862Z,1019.34
2023-05-13T12:31:32.309Z,1019.34
2023-05-13T12:32:35.324Z,1019.37
2023-05-13T12:33:39.631Z,1019.35
2023-05-13T12:34:44.003Z,1019.35
2023-05-13T12:36:02.524Z,1019.31
2023-05-13T12:37:20.098Z,1019.32
2023-05-13T12:38:23.569Z,1019.37
2023-05-13T12:39:33.929Z,1019.35
2023-05-13T12:40:37.011Z,1019.28
2023-05-13T12:41:41.454Z,1019.29
2023-05-13T12:42:48.866Z,1019.30
2023-05-13T12:44:06.370Z,1019.21
2023-05-13T12:45:10.776Z,1019.19
2023-05-13T12:46:14.900Z,1019.30
2023-05-13T12:47:19.199Z,1019.24
2023-05-13T12:48:23.727Z,1019.21
2023-05-13T12:49:28.157Z,1019.19
2023-05-13T12:50:32.637Z,1019.29
2023-05-13T12:51:40.082Z,1019.21
2023-05-13T12:52:43.626Z,1019.18
2023-05-13T12:53:48.021Z,1019.12
2023-05-13T12:55:06.535Z,1019.14
2023-05-13T12:56:09.914Z,1019.27
2023-05-13T12:57:14.319Z,1019.10
2023-05-13T12:58:18.818Z,1019.11
2023-05-13T12:59:23.216Z,1019.12
2023-05-13T13:00:27.639Z,1019.14
2023-05-13T13:01:38.386Z,1019.08
2023-05-13T13:02:41.496Z,1019.23
2023-05-13T13:03:51.926Z,1019.18
2023-05-13T13:04:54.901Z,1019.13
2023-05-13T13:05:59.389Z,1019.09
2023-05-13T13:07:09.846Z,1019.08
2023-05-13T13:08:13.046Z,1019.09
2023-05-13T13:09:23.564Z,1019.12